Skip Navigation Links
NOAA logo - Click to go to the NOAA homepage
NOAA's National Weather Service
Alaska Aviation Weather Unit
  NWS logo - Click to go to the NWS homepage
Left Navbar Graphic     15 AKDT = 23 GMT

   
NOAA is celebrating 200 years of science, service, and stewardship. Visit the NOAA 200th celebration Web site to learn more.
USA.gov is the U.S. Government's official Web portal to all Federal, state and local government Web resources and services.
Facebook
NWS on Facebook

Important Change Regarding the AAWU Web Presence

 

Over the last several months, the AAWU has been working to navigate its webpages to a nationally supported server. Security, as well as other needs, have necessitated the change.  We have been given an extension for the site changeover while we diligently work at addressing feedback received. As of July 14, 2017, aawu.arh.noaa.gov will be discontinued. The new AAWU web address is weather.gov/aawu. It is now live and will run in-parallel with the old site until it is discontinued on July 14, 2017. Please continue to send any feedback or questions regarding the new webpages to nws.ar.aawu.webauthors@noaa.gov.  Thank you for your patience during this time of transition.
AAWU Home :: Display TAF Add Bookmark
SPECI PAGN 191714Z AUTO 35003KT 10SM -RA FEW012 SCT028 OVC037 05/04
     A2897 RMK AO2 P0001=

SPECI PAGN 191741Z AUTO 01003KT 10SM -RA BKN026 OVC035 05/04 A2898 RMK
     AO2 P0001=

METAR PAGN 191756Z AUTO 03004KT 10SM -RA BKN024 OVC035 05/04 A2898 RMK
     AO2 SLP804 P0002 60005 T00500039 10050 20044 53015=

SPECI PAGN 191823Z AUTO 00000KT 10SM RA SCT022 SCT026 OVC033 05/04 A2899
     RMK AO2 P0003=

SPECI PAGN 191849Z AUTO 00000KT 10SM -RA BKN020 OVC029 05/04 A2900 RMK
     AO2 P0006=

METAR PAGN 191856Z AUTO 00000KT 10SM -RA SCT020 BKN029 OVC050 05/04
     A2900 RMK AO2 SLP809 P0006 T00500039=

SPECI PAGN 191936Z AUTO 00000KT 10SM -RA SCT022 SCT029 OVC037 06/04
 A2901 RMK AO2 P0001=

SPECI PAGN 191943Z AUTO 00000KT 9SM -RA BKN022 OVC037 06/04 A2901 RMK
     AO2 P0002=

METAR PAGN 191956Z AUTO 00000KT 9SM -RA SCT019 BKN025 OVC047 06/04 A2901
     RMK AO2 SLP815 P0002 T00560039=

SPECI PAGN 192110Z AUTO 00000KT 10SM -RA BKN015 OVC046 06/04 A2904 RMK
     AO2 P0000=

SPECI PAGN 192113Z AUTO 00000KT 10SM -RA FEW009 BKN013 OVC046 06/04
     A2904 RMK AO2 P0000=

METAR PAGN 192156Z AUTO 00000KT 10SM -RA SCT009 BKN012 OVC060 06/04
     A2905 RMK AO2 SLP825 P0001 T00610044=

SPECI PAGN 192243Z AUTO 00000KT 10SM SCT009 BKN021 OVC080 07/04 A2905
     RMK AO2 RAE22 P0000=

METAR PAGN 192256Z AUTO 00000KT 10SM FEW009 BKN019 OVC110 07/04
 A2905 RMK AO2 RAE22 SLP828 P0000 T00670039=

SPECI PAGN 192306Z AUTO 00000KT 10SM SCT019 BKN080 OVC100 07/04
 A2906 RMK AO2=

SPECI PAGN 192313Z AUTO 00000KT 10SM BKN019 OVC110 07/04 A2906 RMK
     AO2=


NOAA's National Weather Service
Alaska Aviation Weather Unit
6930 Sand Lake Road
Anchorage, AK 99502-1845
Disclaimer
Credits
Glossary
Privacy Policy
About Us
Career Opportunities
Contact AAWU Internet Services Site last modified: April, 17th 2012